ZUD weather

Pupelde Airport
Ancud, Los Lagos Region, Chile

Public forecast

Using degrees Celsius for public forecast. Weather courtesy of forecast.io.

METAR (pilot weather report)

Closest report is Mocopulli Airport, 26.4 nm (49.0 km) S. Retrieved 2019/04/18 23:00 UTC (57 minutes ago):

SCPQ 182300Z AUTO 15007KT //// R35/P2000N BKN029 10/08 Q1016

TAF (pilot weather forecast)

Forecast is more than 6 hours old.

Closest forecast is Mocopulli Airport, 26.4 nm (49.0 km) S. Retrieved 2019/04/18 12:00 UTC (12 hours ago):

TAF SCPQ 181008Z 1812/1824 24005KT 2000 BR BKN005 TN02/1812Z TX12/1819Z BECMG 1813/1815 18010KT 9999 NSW SCT030